Time;durP1;ratioP1;P1;durP2;ratioP2;P2;SDS_P1;SDS_P2;PMS_P1;PMS_P2;Temp;Humidity;BMP_temperature;BMP_pressure;BME280_temperature;BME280_humidity;BME280_pressure;Samples;Min_cycle;Max_cycle;Signal;HPM_P1;HPM_P2
2023/04/23 00:01:07;;;;;;;7.93;5.90;;;14.10;99.90;;;14.55;100.00;99882.53;5071116;28;20479;-76
2023/04/23 00:03:35;;;;;;;9.15;6.32;;;14.10;99.90;;;14.59;100.00;99884.50;5072457;28;20070;-75
2023/04/23 00:06:06;;;;;;;10.18;5.97;;;14.10;99.90;;;14.65;100.00;99888.91;5072128;28;20119;-75
2023/04/23 00:08:33;;;;;;;8.38;5.93;;;14.10;99.90;;;14.67;100.00;99885.94;5072374;28;20036;-75
2023/04/23 00:10:59;;;;;;;8.02;6.18;;;14.00;99.90;;;14.63;100.00;99877.38;5071978;28;20054;-75
2023/04/23 00:13:25;;;;;;;9.40;6.10;;;14.00;99.90;;;14.59;100.00;99869.94;5061008;28;20060;-75
2023/04/23 00:15:51;;;;;;;9.20;6.28;;;14.00;99.90;;;14.55;100.00;99874.28;5071031;28;20533;-75
2023/04/23 00:18:18;;;;;;;10.15;6.20;;;13.90;99.90;;;14.50;100.00;99881.41;5059786;28;20033;-76
2023/04/23 00:20:43;;;;;;;7.88;5.90;;;13.90;99.90;;;14.52;100.00;99873.72;5072137;28;20143;-76
2023/04/23 00:23:09;;;;;;;8.77;5.53;;;13.90;99.90;;;14.48;100.00;99867.13;5072418;28;20476;-77
2023/04/23 00:25:35;;;;;;;7.18;5.53;;;13.90;99.90;;;14.41;100.00;99866.50;5072112;28;20043;-75
2023/04/23 00:28:00;;;;;;;7.57;5.60;;;13.80;99.90;;;14.27;100.00;99832.34;5072058;28;20036;-75
2023/04/23 00:30:26;;;;;;;9.32;5.93;;;13.80;99.90;;;14.32;100.00;99868.91;5070941;28;20488;-75
2023/04/23 00:32:52;;;;;;;8.10;5.90;;;13.80;99.90;;;14.38;100.00;99859.63;5071204;28;20029;-76
2023/04/23 00:35:19;;;;;;;8.50;5.72;;;13.80;99.90;;;14.39;100.00;99863.19;5071333;28;20043;-75
2023/04/23 00:37:45;;;;;;;8.38;6.10;;;13.80;99.90;;;14.47;100.00;99859.16;5065290;28;20033;-75
2023/04/23 00:40:11;;;;;;;8.18;5.97;;;13.70;99.90;;;14.31;100.00;99858.16;5071201;28;20533;-75
2023/04/23 00:42:38;;;;;;;8.68;6.10;;;13.70;99.90;;;14.19;100.00;99855.59;5062263;28;20037;-75
2023/04/23 00:45:07;;;;;;;7.70;6.07;;;13.60;99.90;;;14.25;100.00;99860.06;5069476;28;20062;-75
2023/04/23 00:47:34;;;;;;;10.40;6.47;;;13.60;99.90;;;14.24;100.00;99864.72;5071937;28;20159;-76
2023/04/23 00:50:01;;;;;;;9.48;6.45;;;13.60;99.90;;;14.13;100.00;99852.00;5071711;28;20120;-75
2023/04/23 00:52:28;;;;;;;9.27;6.47;;;13.50;99.90;;;14.08;100.00;99854.69;5054033;28;20053;-75
2023/04/23 00:54:54;;;;;;;9.15;7.00;;;13.50;99.90;;;14.07;100.00;99859.34;5069965;28;20110;-75
2023/04/23 00:57:22;;;;;;;10.23;6.63;;;13.50;99.90;;;14.01;100.00;99865.03;5069756;28;20035;-75
2023/04/23 00:59:48;;;;;;;12.27;7.28;;;13.50;99.90;;;14.00;100.00;99850.50;5071151;28;20051;-75
2023/04/23 01:02:16;;;;;;;11.32;6.75;;;13.40;99.90;;;13.87;100.00;99832.56;5071220;28;20035;-75
2023/04/23 01:04:44;;;;;;;9.73;6.97;;;13.40;99.90;;;13.96;100.00;99852.13;5071231;28;20037;-74
2023/04/23 01:07:12;;;;;;;;;;;13.30;99.90;;;13.95;100.00;99853.22;5071861;28;20119;-74
2023/04/23 01:09:39;;;;;;;11.48;7.07;;;13.40;99.90;;;13.91;100.00;99861.13;5070253;28;19917;-75
2023/04/23 01:12:05;;;;;;;11.65;7.50;;;13.30;99.90;;;13.87;100.00;99859.13;5071182;28;20044;-76
2023/04/23 01:14:32;;;;;;;10.60;7.07;;;13.30;99.90;;;13.76;100.00;99852.72;5071178;28;20115;-75
2023/04/23 01:16:58;;;;;;;8.77;6.90;;;13.30;99.90;;;13.80;100.00;99853.88;5059100;28;20043;-74
2023/04/23 01:19:24;;;;;;;10.55;7.90;;;13.20;99.90;;;13.79;100.00;99852.19;5071061;28;20121;-74
2023/04/23 01:21:51;;;;;;;9.60;7.47;;;13.20;99.90;;;13.79;100.00;99850.28;5070690;28;20036;-74
2023/04/23 01:24:17;;;;;;;12.18;7.65;;;13.20;99.90;;;13.63;100.00;99848.47;5069914;28;20114;-74
2023/04/23 01:26:44;;;;;;;11.63;7.57;;;13.20;99.90;;;13.70;100.00;99854.59;5070079;28;20048;-74
2023/04/23 01:29:11;;;;;;;11.55;8.35;;;13.10;99.90;;;13.57;100.00;99855.81;5070668;28;20043;-74
2023/04/23 01:31:37;;;;;;;12.07;7.63;;;13.20;99.90;;;13.57;100.00;99852.22;5070728;28;20102;-74
2023/04/23 01:34:04;;;;;;;15.70;10.35;;;13.20;99.90;;;13.65;100.00;99857.25;5070351;28;20523;-74
2023/04/23 01:36:30;;;;;;;12.07;8.65;;;13.20;99.90;;;13.64;100.00;99850.13;5070717;28;20069;-74
2023/04/23 01:38:56;;;;;;;11.65;8.20;;;13.20;99.90;;;13.71;100.00;99850.75;5070459;28;20392;-74
2023/04/23 01:41:22;;;;;;;11.07;8.75;;;13.20;99.90;;;13.63;100.00;99857.53;5070734;28;20039;-74
2023/04/23 01:43:48;;;;;;;12.95;9.07;;;13.10;99.90;;;13.52;100.00;99853.00;5070149;28;20040;-74
2023/04/23 01:46:15;;;;;;;13.27;8.88;;;13.20;99.90;;;13.42;100.00;99861.91;5070169;28;20032;-74
2023/04/23 01:48:41;;;;;;;17.13;12.05;;;13.20;99.90;;;13.04;100.00;99847.16;5069919;28;20036;-74
2023/04/23 01:51:08;;;;;;;18.80;13.80;;;13.20;99.90;;;13.09;100.00;99866.38;5070617;28;20071;-74
2023/04/23 01:53:33;;;;;;;18.05;12.95;;;13.10;99.90;;;13.02;100.00;99855.63;5066560;28;20094;-74
2023/04/23 01:56:01;;;;;;;19.63;15.43;;;13.00;99.90;;;12.68;100.00;99852.94;5053806;28;20029;-75
2023/04/23 01:58:26;;;;;;;22.15;16.30;;;13.00;99.90;;;12.86;100.00;99861.97;5052081;28;20033;-74
2023/04/23 02:00:53;;;;;;;21.92;17.58;;;12.80;99.90;;;12.82;100.00;99852.59;5069965;28;20350;-73
2023/04/23 02:03:18;;;;;;;23.48;17.35;;;12.80;99.90;;;12.79;100.00;99857.50;5069772;28;20031;-74
2023/04/23 02:05:44;;;;;;;26.55;19.38;;;12.70;99.90;;;12.72;100.00;99858.75;5070378;28;20508;-73
2023/04/23 02:08:10;;;;;;;28.75;19.63;;;12.70;99.90;;;12.79;100.00;99862.97;5070228;28;20039;-73
2023/04/23 02:10:36;;;;;;;27.48;20.05;;;12.60;99.90;;;12.85;100.00;99865.78;5035543;28;20457;-74
2023/04/23 02:13:02;;;;;;;27.77;20.40;;;12.60;99.90;;;12.51;100.00;99853.78;5070709;28;20061;-74
2023/04/23 02:15:28;;;;;;;27.60;19.65;;;12.60;99.90;;;12.60;100.00;99850.63;5069507;28;20029;-74
2023/04/23 02:17:54;;;;;;;29.05;20.85;;;12.50;99.90;;;12.73;100.00;99864.00;5053913;28;20041;-74
2023/04/23 02:20:21;;;;;;;27.50;20.50;;;12.50;99.90;;;12.74;100.00;99871.13;5051139;28;20029;-74
2023/04/23 02:22:48;;;;;;;30.80;21.48;;;12.40;99.90;;;12.65;100.00;99867.13;5038159;28;20029;-74
2023/04/23 02:25:16;;;;;;;33.08;22.02;;;12.40;99.90;;;12.62;100.00;99863.00;5068655;28;20036;-74
2023/04/23 02:27:43;;;;;;;34.53;22.85;;;12.40;99.90;;;12.47;100.00;99852.63;5069866;28;20056;-74
2023/04/23 02:30:10;;;;;;;37.58;23.38;;;12.40;99.90;;;12.59;100.00;99868.13;5068967;28;20170;-74
2023/04/23 02:32:37;;;;;;;38.65;25.08;;;12.30;99.90;;;12.40;100.00;99876.56;5069482;28;20037;-74
2023/04/23 02:35:05;;;;;;;40.25;24.92;;;12.30;99.90;;;12.41;100.00;99877.41;5062508;28;20041;-74
2023/04/23 02:37:35;;;;;;;37.95;24.90;;;12.20;99.90;;;12.27;100.00;99877.72;5069474;28;20055;-74
2023/04/23 02:40:04;;;;;;;37.33;24.02;;;12.20;99.90;;;12.27;100.00;99894.13;5064811;28;20102;-73
2023/04/23 02:42:30;;;;;;;37.33;24.55;;;12.10;99.90;;;12.14;100.00;99899.94;5070048;28;20024;-74
2023/04/23 02:44:56;;;;;;;40.05;25.58;;;12.00;99.90;;;12.04;100.00;99895.91;5069264;28;20047;-73
2023/04/23 02:47:21;;;;;;;39.20;25.52;;;11.90;99.90;;;11.90;100.00;99891.81;5056259;28;20085;-74
2023/04/23 02:49:47;;;;;;;40.90;24.63;;;11.90;99.90;;;11.94;100.00;99901.16;5068989;28;20041;-73
2023/04/23 02:52:13;;;;;;;42.60;25.33;;;11.80;99.90;;;11.82;100.00;99893.00;5069443;28;20498;-73
2023/04/23 02:54:39;;;;;;;44.70;26.95;;;11.70;99.90;;;11.76;100.00;99900.28;5069387;28;20087;-73
2023/04/23 02:57:05;;;;;;;43.65;25.75;;;11.60;99.90;;;11.68;100.00;99891.66;5051765;28;20035;-73
2023/04/23 02:59:31;;;;;;;44.95;26.45;;;11.60;99.90;;;11.80;100.00;99906.94;5072575;28;20388;-74
2023/04/23 03:01:57;;;;;;;45.85;27.45;;;11.50;99.90;;;11.65;100.00;99891.03;5055330;28;20039;-73
2023/04/23 03:04:23;;;;;;;45.78;26.85;;;11.50;99.90;;;11.75;100.00;99903.25;5058769;28;20067;-73
2023/04/23 03:06:49;;;;;;;46.38;26.50;;;11.50;99.90;;;11.66;100.00;99900.88;5072966;28;20391;-73
2023/04/23 03:09:15;;;;;;;50.90;29.20;;;11.40;99.90;;;11.73;100.00;99903.50;5067935;28;20035;-73
2023/04/23 03:11:41;;;;;;;51.20;28.30;;;11.40;99.90;;;11.62;100.00;99901.63;5058481;28;20036;-73
2023/04/23 03:14:08;;;;;;;47.67;27.27;;;11.40;99.90;;;11.64;100.00;99903.03;5067289;28;20411;-73
2023/04/23 03:16:34;;;;;;;53.10;29.23;;;11.30;99.90;;;11.60;100.00;99892.84;5069435;28;20043;-74
2023/04/23 03:19:00;;;;;;;50.55;28.75;;;11.20;99.90;;;11.61;100.00;99895.34;5049867;28;20692;-74
2023/04/23 03:21:26;;;;;;;55.35;31.17;;;11.20;99.90;;;11.43;100.00;99873.66;5070756;28;20075;-74
2023/04/23 03:23:52;;;;;;;55.53;29.98;;;11.20;99.90;;;11.57;100.00;99894.16;5071401;28;20063;-74
2023/04/23 03:26:17;;;;;;;56.25;30.58;;;11.20;99.90;;;11.57;100.00;99896.06;5077586;28;20071;-74
2023/04/23 03:28:43;;;;;;;58.50;32.47;;;11.20;99.90;;;11.49;100.00;99900.81;5057397;28;20139;-73
2023/04/23 03:31:09;;;;;;;61.63;32.58;;;11.20;99.90;;;11.37;100.00;99903.59;5071756;28;20460;-73
2023/04/23 03:33:35;;;;;;;58.30;32.45;;;11.20;99.90;;;11.35;100.00;99903.00;5071347;28;20037;-74
2023/04/23 03:36:01;;;;;;;58.95;32.60;;;11.20;99.90;;;11.40;100.00;99901.44;5064188;28;20036;-73
2023/04/23 03:38:30;;;;;;;65.47;35.33;;;11.30;99.90;;;11.46;100.00;99893.13;5061681;28;20484;-73
2023/04/23 03:40:57;;;;;;;63.90;33.83;;;11.20;99.90;;;11.49;100.00;99905.47;5071660;28;20415;-73
2023/04/23 03:43:24;;;;;;;59.92;32.30;;;11.30;99.90;;;11.37;100.00;99900.03;5070974;28;20060;-73
2023/04/23 03:46:14;;;;;;;67.88;34.95;;;11.20;99.90;;;11.45;100.00;99901.56;5070389;28;20093;-73
2023/04/23 03:48:41;;;;;;;69.53;34.70;;;11.20;99.90;;;11.43;100.00;99896.34;5056281;28;20041;-74
2023/04/23 03:51:12;;;;;;;66.25;35.15;;;11.20;99.90;;;11.45;100.00;99902.38;5073056;28;20028;-73
2023/04/23 03:53:44;;;;;;;70.93;35.97;;;11.20;99.90;;;11.43;100.00;99906.44;5063165;28;20045;-74
2023/04/23 03:56:43;;;;;;;69.57;36.40;;;11.20;99.90;;;11.33;100.00;99902.41;5076203;28;20083;-74
2023/04/23 03:59:22;;;;;;;71.97;36.92;;;11.10;99.90;;;11.26;100.00;99885.31;5040406;28;20512;-74
2023/04/23 04:01:50;;;;;;;73.13;36.30;;;11.10;99.90;;;11.35;100.00;99907.63;5085323;28;20060;-74
2023/04/23 04:04:17;;;;;;;68.55;35.53;;;11.10;99.90;;;11.37;100.00;99908.22;5072720;28;20067;-75
2023/04/23 04:06:43;;;;;;;68.63;35.60;;;11.10;99.90;;;11.34;100.00;99900.53;5072474;28;20068;-74
2023/04/23 04:09:08;;;;;;;68.43;35.35;;;11.10;99.90;;;11.31;100.00;99910.00;5057739;28;20372;-74
2023/04/23 04:11:34;;;;;;;70.32;36.15;;;11.10;99.90;;;11.37;100.00;99913.69;5071240;28;20507;-74
2023/04/23 04:14:00;;;;;;;72.53;37.03;;;11.10;99.90;;;11.31;100.00;99906.47;5072043;28;20047;-74
2023/04/23 04:16:26;;;;;;;75.25;39.33;;;11.10;99.90;;;11.19;100.00;99901.84;5072115;28;20115;-74
2023/04/23 04:18:51;;;;;;;76.05;39.38;;;11.10;99.90;;;11.28;100.00;99910.50;5071632;28;20070;-74
2023/04/23 04:21:17;;;;;;;69.43;37.17;;;11.10;99.90;;;11.33;100.00;99917.97;5072394;28;20119;-74
2023/04/23 04:23:44;;;;;;;70.78;37.72;;;11.10;99.90;;;11.30;100.00;99921.19;5072319;28;20066;-74
2023/04/23 04:26:10;;;;;;;70.57;37.63;;;11.10;99.90;;;11.26;100.00;99920.81;5071885;28;20529;-74
2023/04/23 04:28:36;;;;;;;71.75;37.67;;;11.10;99.90;;;11.37;100.00;99922.69;5071345;28;20068;-74
2023/04/23 04:31:04;;;;;;;71.28;37.33;;;11.10;99.90;;;11.38;100.00;99931.72;5070858;28;20130;-74
2023/04/23 04:33:30;;;;;;;67.47;35.85;;;11.20;99.90;;;11.25;100.00;99949.19;5072012;28;20033;-75
2023/04/23 04:35:56;;;;;;;69.22;38.28;;;11.20;99.90;;;11.21;100.00;99946.09;5071688;28;20057;-74
2023/04/23 04:38:22;;;;;;;65.97;36.92;;;11.20;99.90;;;11.23;100.00;99946.69;5053363;28;20037;-74
2023/04/23 04:40:48;;;;;;;71.72;38.80;;;11.20;99.90;;;11.17;100.00;99950.38;5070125;28;20039;-74
2023/04/23 04:43:15;;;;;;;71.65;38.95;;;11.10;99.90;;;11.12;100.00;99939.34;5067609;28;20511;-74
2023/04/23 04:45:41;;;;;;;71.57;38.30;;;11.20;99.90;;;11.20;100.00;99943.63;5069462;28;20036;-74
2023/04/23 04:48:07;;;;;;;70.90;37.40;;;11.20;99.90;;;11.19;100.00;99944.69;5071368;28;20097;-74
2023/04/23 04:50:33;;;;;;;71.55;38.42;;;11.10;99.90;;;11.19;100.00;99950.97;5056223;28;20076;-74
2023/04/23 04:52:59;;;;;;;73.15;37.47;;;11.10;99.90;;;11.28;100.00;99954.19;5071038;28;20032;-77
2023/04/23 04:55:25;;;;;;;74.63;37.63;;;11.10;99.90;;;11.24;100.00;99966.66;5058521;28;20427;-75
2023/04/23 04:57:52;;;;;;;68.97;36.70;;;11.20;99.90;;;11.34;100.00;99958.69;5070935;28;20028;-74
2023/04/23 05:00:21;;;;;;;67.90;34.85;;;11.10;99.90;;;11.46;100.00;99972.31;5071161;28;20476;-73
2023/04/23 05:02:51;;;;;;;67.60;35.83;;;11.20;99.90;;;11.37;100.00;99971.03;5064385;28;20043;-74
2023/04/23 05:05:19;;;;;;;57.85;31.67;;;11.20;99.90;;;11.07;100.00;99975.53;5071685;28;20044;-73
2023/04/23 05:07:44;;;;;;;;;;;11.20;99.90;;;11.06;100.00;99976.59;5071769;28;20033;-75
2023/04/23 05:10:11;;;;;;;58.53;33.00;;;11.10;99.90;;;11.02;100.00;99989.06;5070732;28;19977;-75
2023/04/23 05:12:40;;;;;;;56.25;32.97;;;11.10;99.90;;;11.10;100.00;99989.78;5070235;28;20037;-74
2023/04/23 05:15:08;;;;;;;61.60;33.25;;;11.10;99.90;;;11.10;100.00;99989.78;5071014;28;20098;-74
2023/04/23 05:17:34;;;;;;;53.92;32.55;;;11.00;99.90;;;10.81;100.00;99990.47;5071262;28;20119;-75
2023/04/23 05:20:00;;;;;;;51.55;29.85;;;11.00;99.90;;;11.01;100.00;99997.50;5070510;28;20119;-75
2023/04/23 05:22:26;;;;;;;51.92;29.20;;;11.00;99.90;;;11.16;100.00;99992.41;5071148;28;20024;-75
2023/04/23 05:24:52;;;;;;;50.55;29.77;;;11.10;99.90;;;10.91;100.00;99989.91;5070100;28;20051;-73
2023/04/23 05:27:17;;;;;;;50.30;30.00;;;11.00;99.90;;;10.88;100.00;99979.47;5070337;28;20044;-74
2023/04/23 05:29:43;;;;;;;50.67;29.70;;;11.00;99.90;;;10.85;100.00;99979.91;5070487;28;20161;-75
2023/04/23 05:32:09;;;;;;;53.50;29.30;;;11.00;99.90;;;10.86;100.00;99976.09;5070683;28;20031;-75
2023/04/23 05:34:34;;;;;;;51.30;29.25;;;11.00;99.90;;;10.89;100.00;99995.59;5054691;28;20049;-74
2023/04/23 05:37:01;;;;;;;53.55;30.60;;;10.90;99.90;;;10.94;100.00;100000.34;5067219;28;20469;-75
2023/04/23 05:39:27;;;;;;;51.30;29.52;;;10.90;99.90;;;10.97;100.00;99991.69;5070224;28;20450;-76
2023/04/23 05:41:53;;;;;;;51.63;29.30;;;11.00;99.90;;;11.18;100.00;100008.56;5055809;28;20102;-77
2023/04/23 05:44:18;;;;;;;51.15;29.05;;;11.00;99.90;;;10.94;100.00;99998.44;5070548;28;20475;-75
2023/04/23 05:46:44;;;;;;;49.92;29.02;;;11.00;99.90;;;11.04;100.00;99999.78;5070283;28;20044;-75
2023/04/23 05:49:10;;;;;;;52.53;30.15;;;11.10;99.90;;;11.10;100.00;100003.44;5070199;28;20479;-75
2023/04/23 05:51:35;;;;;;;53.50;30.02;;;11.10;99.90;;;11.02;100.00;99996.44;5070459;28;20052;-75
2023/04/23 05:54:01;;;;;;;49.50;29.42;;;11.10;99.90;;;10.99;100.00;100008.66;5057458;28;20474;-75
2023/04/23 05:56:27;;;;;;;49.55;28.73;;;11.00;99.90;;;10.96;100.00;99990.03;5070322;28;20054;-74
2023/04/23 05:58:53;;;;;;;51.72;30.40;;;11.10;99.90;;;10.97;100.00;100013.50;5069657;28;20037;-75
2023/04/23 06:01:19;;;;;;;48.78;29.20;;;11.10;99.90;;;11.01;100.00;100005.69;5070229;28;20040;-75
2023/04/23 06:03:45;;;;;;;47.15;29.00;;;11.00;99.90;;;11.10;100.00;100014.34;5068901;28;20109;-75
2023/04/23 06:06:11;;;;;;;50.78;29.70;;;11.10;99.90;;;11.29;100.00;100020.56;5070219;28;20372;-76
2023/04/23 06:08:37;;;;;;;46.90;29.50;;;11.10;99.90;;;10.87;100.00;100016.81;5070071;28;20063;-75
2023/04/23 06:11:04;;;;;;;52.72;29.48;;;11.10;99.90;;;11.06;100.00;100025.75;5053217;28;20090;-75
2023/04/23 06:13:30;;;;;;;51.47;29.90;;;11.00;99.90;;;11.10;100.00;100026.13;5069836;28;20032;-76
2023/04/23 06:15:57;;;;;;;48.95;28.63;;;11.10;99.90;;;10.83;100.00;100026.53;5069412;28;20047;-74
2023/04/23 06:18:23;;;;;;;46.25;29.00;;;10.90;99.90;;;10.74;100.00;100020.59;5070293;28;20036;-76
2023/04/23 06:20:50;;;;;;;47.05;28.92;;;10.90;99.90;;;10.71;100.00;100023.78;5069649;28;20048;-76
2023/04/23 06:23:16;;;;;;;49.70;30.60;;;10.90;99.90;;;10.99;100.00;100030.47;5069274;28;20510;-76
2023/04/23 06:25:42;;;;;;;50.50;30.45;;;10.90;99.90;;;11.07;100.00;100029.31;5069740;28;20052;-76
2023/04/23 06:28:08;;;;;;;49.88;29.85;;;10.90;99.90;;;11.05;100.00;100015.88;5069130;28;20033;-75
2023/04/23 06:30:43;;;;;;;48.78;29.65;;;11.00;99.90;;;11.26;100.00;100027.31;5054922;28;20033;-78
2023/04/23 06:33:08;;;;;;;50.92;29.85;;;11.10;99.90;;;11.40;100.00;100027.06;5056929;28;20090;-78
2023/04/23 06:35:34;;;;;;;48.72;29.88;;;11.20;99.90;;;11.58;100.00;100023.41;5052542;28;20036;-78
2023/04/23 06:38:00;;;;;;;49.78;30.23;;;11.30;99.90;;;11.37;100.00;100001.91;5069874;28;20100;-77
2023/04/23 06:40:25;;;;;;;50.22;30.15;;;11.30;99.90;;;11.49;100.00;100009.28;5069718;28;20033;-78
2023/04/23 06:42:51;;;;;;;50.78;30.38;;;11.30;99.90;;;11.42;100.00;100016.75;5063768;28;20481;-76
2023/04/23 06:45:23;;;;;;;50.33;29.55;;;11.30;99.90;;;11.47;100.00;100014.97;5067250;28;20132;-76
2023/04/23 06:47:49;;;;;;;49.08;29.63;;;11.30;99.90;;;11.56;100.00;100004.50;5067832;28;20035;-76
2023/04/23 06:50:15;;;;;;;49.47;31.27;;;11.30;99.90;;;11.70;100.00;100007.00;5069484;28;20468;-76
2023/04/23 06:52:42;;;;;;;50.75;30.35;;;11.40;99.90;;;11.73;100.00;100014.72;5051122;28;20033;-76
2023/04/23 06:55:08;;;;;;;55.13;31.58;;;11.40;99.90;;;11.73;100.00;100020.16;5071049;28;20033;-77
2023/04/23 06:57:34;;;;;;;50.97;31.15;;;11.40;99.90;;;11.66;100.00;99993.78;5073871;28;20040;-76
2023/04/23 07:00:00;;;;;;;52.03;31.42;;;11.50;99.90;;;11.79;100.00;100008.28;5073522;28;20096;-76
2023/04/23 07:02:32;;;;;;;50.80;30.15;;;11.50;99.90;;;12.02;100.00;99998.41;5065819;28;20123;-78
2023/04/23 07:04:58;;;;;;;49.45;31.58;;;11.70;99.90;;;12.23;100.00;100013.28;5073439;28;20498;-77
2023/04/23 07:07:24;;;;;;;54.47;32.35;;;11.90;99.90;;;12.27;100.00;100008.19;5072001;28;20094;-76
2023/04/23 07:09:49;;;;;;;49.42;30.95;;;12.00;99.90;;;12.51;100.00;100009.75;5069339;28;20515;-77
2023/04/23 07:12:15;;;;;;;49.80;31.35;;;12.10;99.90;;;12.70;100.00;100011.44;5068930;28;20043;-76
2023/04/23 07:14:41;;;;;;;45.25;29.92;;;12.30;99.90;;;12.53;100.00;100004.00;5073540;28;20052;-78
2023/04/23 07:17:07;;;;;;;46.28;30.00;;;12.40;99.90;;;12.72;100.00;99996.41;5072673;28;20111;-78
2023/04/23 07:19:32;;;;;;;44.75;28.95;;;12.50;99.90;;;12.60;100.00;99982.81;5073752;28;20635;-78
2023/04/23 07:21:58;;;;;;;45.35;29.25;;;12.60;99.90;;;13.04;100.00;100000.50;5073243;28;20043;-78
2023/04/23 07:24:25;;;;;;;44.05;29.20;;;12.70;99.90;;;13.05;100.00;99974.75;5058483;28;20032;-78
2023/04/23 07:26:51;;;;;;;42.35;27.65;;;12.90;99.90;;;13.43;100.00;99981.41;5071411;28;20048;-79
2023/04/23 07:29:16;;;;;;;43.13;27.77;;;13.10;99.90;;;13.35;100.00;99963.44;5073081;28;20077;-76
2023/04/23 07:31:42;;;;;;;41.53;28.63;;;13.20;99.90;;;12.66;100.00;99976.34;5072654;28;20034;-76
2023/04/23 07:34:08;;;;;;;41.97;27.40;;;13.00;99.90;;;12.98;100.00;99966.72;5073264;28;20040;-77
2023/04/23 07:36:35;;;;;;;42.85;27.70;;;13.00;99.90;;;13.18;100.00;99993.59;5073114;28;20052;-77
2023/04/23 07:39:01;;;;;;;46.00;30.02;;;13.00;99.90;;;13.16;100.00;99982.06;5082264;28;20667;-78
2023/04/23 07:41:27;;;;;;;44.88;28.98;;;13.00;99.90;;;13.23;100.00;99990.09;5073986;28;20033;-77
2023/04/23 07:43:53;;;;;;;46.15;29.00;;;13.00;99.90;;;13.58;100.00;99988.16;5072824;28;20040;-78
2023/04/23 07:46:18;;;;;;;44.22;28.08;;;13.30;99.90;;;13.97;100.00;99984.56;5072791;28;20032;-78
2023/04/23 07:48:44;;;;;;;41.40;27.35;;;13.60;99.90;;;13.98;100.00;99976.09;5072725;28;20085;-78
2023/04/23 07:51:10;;;;;;;38.28;26.67;;;13.80;99.90;;;13.99;100.00;99982.38;5072649;28;20036;-79
2023/04/23 07:53:39;;;;;;;43.60;28.52;;;13.80;99.90;;;13.83;100.00;99984.09;5073249;28;20484;-79
2023/04/23 07:56:05;;;;;;;42.78;27.02;;;13.80;99.90;;;13.61;100.00;99974.78;5069041;28;20397;-80
2023/04/23 07:58:36;;;;;;;41.28;27.65;;;13.80;99.90;;;13.80;100.00;99985.47;5069291;28;20047;-78
2023/04/23 08:01:02;;;;;;;37.65;25.30;;;13.80;99.90;;;13.63;100.00;99980.00;5069480;28;20115;-78
2023/04/23 08:03:27;;;;;;;40.55;27.42;;;13.70;99.90;;;14.10;100.00;99970.47;5068385;28;20103;-79
2023/04/23 08:05:55;;;;;;;38.17;26.63;;;13.70;99.90;;;13.94;100.00;99942.03;5072766;28;20151;-78
2023/04/23 08:08:21;;;;;;;38.88;26.65;;;13.80;99.90;;;14.03;100.00;99945.13;5057941;28;20380;-79
2023/04/23 08:10:47;;;;;;;38.95;26.42;;;13.90;99.90;;;14.13;100.00;99939.78;5071710;28;20071;-78
2023/04/23 08:13:13;;;;;;;36.95;24.58;;;14.00;99.90;;;14.05;93.84;99921.00;5071939;28;20029;-77
2023/04/23 08:15:50;;;;;;;36.55;24.85;;;14.00;99.90;;;13.85;94.78;99883.25;5072861;28;20047;-79
2023/04/23 08:18:19;;;;;;;35.25;24.13;;;14.00;99.90;;;13.99;99.82;99933.88;5061860;28;20025;-77
2023/04/23 08:20:49;;;;;;;35.67;24.38;;;14.20;99.90;;;14.10;99.17;99940.28;5068357;28;20121;-77
2023/04/23 08:23:15;;;;;;;34.25;22.67;;;14.20;99.90;;;14.10;93.57;99932.06;5065023;28;20042;-80
2023/04/23 08:25:40;;;;;;;32.90;21.95;;;14.10;99.90;;;14.45;91.37;99936.25;5058690;28;20040;-77
2023/04/23 08:28:06;;;;;;;30.08;21.27;;;14.10;99.90;;;14.45;90.60;99936.25;5072554;28;20024;-79
2023/04/23 08:30:32;;;;;;;34.92;22.17;;;14.30;99.90;;;14.37;91.46;99937.53;5071144;28;20484;-77
2023/04/23 08:33:04;;;;;;;28.58;19.77;;;14.30;99.90;;;14.53;86.16;99922.03;5072217;28;20480;-78
2023/04/23 08:35:33;;;;;;;32.25;21.30;;;14.50;99.90;;;14.59;87.32;99903.69;5065149;28;20495;-77
2023/04/23 08:37:59;;;;;;;31.15;21.25;;;14.70;99.90;;;15.00;89.62;99925.19;5072313;28;20036;-79
2023/04/23 08:40:30;;;;;;;29.67;20.17;;;14.80;99.90;;;15.18;88.64;99928.59;5061774;28;20384;-78
2023/04/23 08:43:09;;;;;;;27.58;18.77;;;15.10;99.90;;;15.36;81.36;99911.66;5078964;28;20399;-79
2023/04/23 08:45:40;;;;;;;30.50;19.75;;;15.30;99.90;;;15.50;84.56;99925.72;5067081;28;20545;-77
2023/04/23 08:48:08;;;;;;;30.85;20.42;;;15.40;99.90;;;15.57;81.08;99921.94;5061410;28;20047;-77
2023/04/23 08:50:38;;;;;;;29.45;19.67;;;15.50;99.90;;;15.64;77.39;99920.56;5072509;28;20130;-77
2023/04/23 08:53:05;;;;;;;24.95;18.05;;;15.60;99.90;;;15.72;75.30;99902.75;5071213;28;20518;-77
2023/04/23 08:55:34;;;;;;;29.15;18.30;;;15.70;99.90;;;15.90;70.41;99908.88;5072039;28;20048;-77
2023/04/23 08:58:02;;;;;;;24.98;17.52;;;15.80;99.90;;;16.04;71.50;99909.19;5071529;28;20032;-76
2023/04/23 09:00:29;;;;;;;20.80;14.23;;;16.00;99.90;;;15.93;70.33;99900.09;5066683;28;20051;-77
2023/04/23 09:02:55;;;;;;;22.87;14.93;;;16.00;99.90;;;16.03;64.62;99874.53;5062799;28;20056;-78
2023/04/23 09:05:21;;;;;;;19.58;13.07;;;16.10;99.90;;;15.99;61.55;99884.44;5070527;28;20282;-75
2023/04/23 09:07:47;;;;;;;22.70;14.30;;;16.10;99.90;;;15.96;60.45;99880.28;5070080;28;20322;-78
2023/04/23 09:10:13;;;;;;;19.85;13.98;;;16.00;99.90;;;16.12;61.11;99883.91;5071477;28;20078;-78
2023/04/23 09:12:42;;;;;;;21.65;14.30;;;16.10;99.90;;;16.08;64.58;99896.53;5071315;28;20060;-78
2023/04/23 09:15:11;;;;;;;21.17;14.55;;;16.20;99.90;;;16.11;60.95;99874.00;5070868;28;20047;-76
2023/04/23 09:17:44;;;;;;;22.17;15.10;;;16.20;99.90;;;16.47;60.31;99885.03;5051828;28;20025;-82
2023/04/23 09:20:12;;;;;;;22.77;14.75;;;16.50;99.90;;;16.54;58.22;99871.81;5058995;28;20036;-76
2023/04/23 09:22:50;;;;;;;20.58;14.40;;;16.50;99.90;;;17.09;59.18;99870.38;5063926;28;20037;-78
2023/04/23 09:25:19;;;;;;;21.42;13.95;;;16.90;99.90;;;17.27;58.99;99862.63;5068847;28;20170;-80
2023/04/23 09:27:47;;;;;;;22.25;14.75;;;17.20;99.90;;;16.86;58.33;99864.38;5038755;28;20041;-81
2023/04/23 09:30:15;;;;;;;18.52;13.20;;;17.20;99.90;;;17.21;56.76;99862.66;5070596;28;20043;-80
2023/04/23 09:32:42;;;;;;;;;;;17.20;99.90;;;17.17;54.99;99852.47;5054738;28;20548;-80
2023/04/23 09:35:13;;;;;;;19.35;13.43;;;17.30;99.90;;;17.23;54.28;99851.31;5070541;28;20012;-80
2023/04/23 09:37:47;;;;;;;22.00;14.25;;;17.30;99.50;;;17.80;55.54;99856.59;5071719;28;20039;-80
2023/04/23 09:40:16;;;;;;;18.23;12.73;;;17.50;99.90;;;17.64;53.87;99851.16;5054449;28;20500;-80
2023/04/23 09:42:53;;;;;;;19.40;13.15;;;17.70;99.20;;;17.06;55.95;99854.41;5070934;28;20590;-81
2023/04/23 09:45:19;;;;;;;17.13;12.73;;;17.50;99.90;;;17.35;55.92;99857.38;5057692;28;20036;-78
2023/04/23 09:47:51;;;;;;;18.77;13.63;;;17.60;99.90;;;17.59;53.32;99820.03;5063788;28;20056;-78
2023/04/23 09:50:19;;;;;;;17.48;12.52;;;17.60;98.60;;;18.22;54.85;99844.19;5071247;28;20044;-78
2023/04/23 09:52:44;;;;;;;21.05;13.55;;;18.00;99.90;;;17.89;53.62;99846.63;5070869;28;20041;-79
2023/04/23 09:55:10;;;;;;;16.73;11.95;;;18.10;98.70;;;18.29;53.95;99848.56;5053106;28;20393;-78
2023/04/23 09:57:43;;;;;;;17.42;12.32;;;18.30;99.00;;;17.87;54.04;99848.84;5069339;28;20098;-78
2023/04/23 10:00:18;;;;;;;17.17;12.07;;;18.30;98.80;;;17.84;51.70;99832.84;5070746;28;20365;-78
2023/04/23 10:02:48;;;;;;;17.70;11.93;;;18.20;96.30;;;17.68;52.91;99846.72;5069840;28;20048;-79